sensor_id;sensor_type;location;lat;lon;timestamp;pressure;altitude;pressure_sealevel;temperature;humidity
44213;BME280;29882;46.356;17.798;2022-09-24T08:37:00;99983.78;;;15.26;71.80
44213;BME280;29882;46.356;17.798;2022-09-24T08:39:27;99979.47;;;15.31;70.44
44213;BME280;29882;46.356;17.798;2022-09-24T08:41:59;99970.16;;;15.41;70.03
44213;BME280;29882;46.356;17.798;2022-09-24T08:44:30;99987.38;;;15.48;71.23
44213;BME280;29882;46.356;17.798;2022-09-24T08:47:36;99971.72;;;15.50;68.87
44213;BME280;29882;46.356;17.798;2022-09-24T08:50:20;99964.97;;;15.60;69.16
44213;BME280;29882;46.356;17.798;2022-09-24T08:52:50;99965.44;;;15.64;67.94
44213;BME280;29882;46.356;17.798;2022-09-24T09:00:30;99969.94;;;15.78;68.14
44213;BME280;29882;46.356;17.798;2022-09-24T09:03:10;99975.50;;;15.70;68.31
44213;BME280;29882;46.356;17.798;2022-09-24T09:11:08;99961.78;;;16.00;69.58
44213;BME280;29882;46.356;17.798;2022-09-24T09:13:45;99962.44;;;16.08;68.27
44213;BME280;29882;46.356;17.798;2022-09-24T09:18:46;99961.91;;;16.20;68.36
44213;BME280;29882;46.356;17.798;2022-09-24T09:21:15;99961.78;;;16.34;69.67
44213;BME280;29882;46.356;17.798;2022-09-24T09:23:49;99962.03;;;16.39;68.62
44213;BME280;29882;46.356;17.798;2022-09-24T09:26:17;99965.66;;;16.53;67.99
44213;BME280;29882;46.356;17.798;2022-09-24T09:28:46;99967.28;;;16.41;67.09
44213;BME280;29882;46.356;17.798;2022-09-24T09:44:29;99965.50;;;16.61;69.77
44213;BME280;29882;46.356;17.798;2022-09-24T09:46:58;99970.78;;;16.63;70.09
44213;BME280;29882;46.356;17.798;2022-09-24T09:49:30;99966.66;;;16.73;69.52
44213;BME280;29882;46.356;17.798;2022-09-24T09:52:00;99973.41;;;16.84;70.44
44213;BME280;29882;46.356;17.798;2022-09-24T09:54:36;99967.00;;;17.05;70.60
44213;BME280;29882;46.356;17.798;2022-09-24T09:57:04;99970.66;;;17.32;70.67
44213;BME280;29882;46.356;17.798;2022-09-24T09:59:32;99961.69;;;17.45;67.83
44213;BME280;29882;46.356;17.798;2022-09-24T10:02:01;99969.41;;;17.35;66.87
44213;BME280;29882;46.356;17.798;2022-09-24T10:07:08;99945.47;;;17.23;67.66
44213;BME280;29882;46.356;17.798;2022-09-24T10:09:36;99950.28;;;17.21;67.20
44213;BME280;29882;46.356;17.798;2022-09-24T10:14:43;99932.09;;;17.42;66.41
44213;BME280;29882;46.356;17.798;2022-09-24T10:17:12;99934.63;;;17.50;66.53
44213;BME280;29882;46.356;17.798;2022-09-24T10:19:40;99943.03;;;17.55;66.71
44213;BME280;29882;46.356;17.798;2022-09-24T10:22:13;99930.25;;;17.55;65.60
44213;BME280;29882;46.356;17.798;2022-09-24T10:24:42;99929.63;;;17.47;66.90
44213;BME280;29882;46.356;17.798;2022-09-24T10:27:12;99926.69;;;17.48;66.75
44213;BME280;29882;46.356;17.798;2022-09-24T10:29:43;99922.91;;;17.56;67.79
44213;BME280;29882;46.356;17.798;2022-09-24T10:32:28;99925.06;;;17.80;69.91
44213;BME280;29882;46.356;17.798;2022-09-24T10:34:56;99925.25;;;18.12;68.59
44213;BME280;29882;46.356;17.798;2022-09-24T10:37:24;99925.25;;;18.19;66.25
44213;BME280;29882;46.356;17.798;2022-09-24T10:40:01;99916.41;;;18.30;67.03
44213;BME280;29882;46.356;17.798;2022-09-24T10:42:29;99920.56;;;18.39;65.30
44213;BME280;29882;46.356;17.798;2022-09-24T10:44:57;99913.22;;;18.39;63.17
44213;BME280;29882;46.356;17.798;2022-09-24T11:00:38;99907.09;;;19.15;59.74
44213;BME280;29882;46.356;17.798;2022-09-24T11:06:01;99900.50;;;19.23;58.93
44213;BME280;29882;46.356;17.798;2022-09-24T11:11:16;99906.41;;;18.82;59.76
44213;BME280;29882;46.356;17.798;2022-09-24T11:16:27;99894.41;;;19.21;58.94
44213;BME280;29882;46.356;17.798;2022-09-24T11:24:04;99907.06;;;18.64;59.26
44213;BME280;29882;46.356;17.798;2022-09-24T11:40:49;99870.28;;;19.18;58.72
44213;BME280;29882;46.356;17.798;2022-09-24T11:51:56;99876.97;;;18.90;59.09
44213;BME280;29882;46.356;17.798;2022-09-24T11:56:44;99862.97;;;19.12;59.11
44213;BME280;29882;46.356;17.798;2022-09-24T11:59:19;99851.25;;;19.36;58.84
44213;BME280;29882;46.356;17.798;2022-09-24T12:01:50;99858.41;;;19.62;58.30
44213;BME280;29882;46.356;17.798;2022-09-24T12:09:34;99854.97;;;21.02;52.18
44213;BME280;29882;46.356;17.798;2022-09-24T12:12:36;99852.88;;;21.15;52.63
44213;BME280;29882;46.356;17.798;2022-09-24T12:14:57;99843.28;;;20.94;51.44
44213;BME280;29882;46.356;17.798;2022-09-24T12:17:30;99848.78;;;21.06;51.21
44213;BME280;29882;46.356;17.798;2022-09-24T12:25:46;99838.09;;;20.56;52.32
44213;BME280;29882;46.356;17.798;2022-09-24T12:28:15;99824.69;;;20.66;52.37
44213;BME280;29882;46.356;17.798;2022-09-24T12:31:24;99829.84;;;20.75;52.55
44213;BME280;29882;46.356;17.798;2022-09-24T12:37:09;99821.34;;;20.28;52.80
44213;BME280;29882;46.356;17.798;2022-09-24T12:39:40;99818.09;;;20.19;53.31
44213;BME280;29882;46.356;17.798;2022-09-24T12:42:09;99821.34;;;20.09;53.83
44213;BME280;29882;46.356;17.798;2022-09-24T12:44:44;99807.13;;;20.01;54.57
44213;BME280;29882;46.356;17.798;2022-09-24T12:47:16;99821.66;;;20.01;54.90
44213;BME280;29882;46.356;17.798;2022-09-24T12:49:46;99814.50;;;19.82;54.24
44213;BME280;29882;46.356;17.798;2022-09-24T12:52:20;99810.44;;;19.66;54.15
44213;BME280;29882;46.356;17.798;2022-09-24T12:54:56;99812.44;;;19.77;54.38
44213;BME280;29882;46.356;17.798;2022-09-24T12:57:26;99810.84;;;19.70;54.68
44213;BME280;29882;46.356;17.798;2022-09-24T12:59:56;99819.72;;;19.83;54.65
44213;BME280;29882;46.356;17.798;2022-09-24T13:02:43;99813.88;;;20.72;53.62
44213;BME280;29882;46.356;17.798;2022-09-24T13:05:15;99809.94;;;20.67;51.27
44213;BME280;29882;46.356;17.798;2022-09-24T13:07:53;99807.38;;;20.36;52.47
44213;BME280;29882;46.356;17.798;2022-09-24T13:10:21;99812.78;;;20.06;52.49
44213;BME280;29882;46.356;17.798;2022-09-24T13:12:49;99810.34;;;19.98;53.37
44213;BME280;29882;46.356;17.798;2022-09-24T13:15:20;99806.88;;;19.66;53.54
44213;BME280;29882;46.356;17.798;2022-09-24T13:20:26;99803.44;;;19.45;55.11
44213;BME280;29882;46.356;17.798;2022-09-24T13:22:57;99801.81;;;19.38;55.84
44213;BME280;29882;46.356;17.798;2022-09-24T13:25:25;99798.88;;;19.39;56.86
44213;BME280;29882;46.356;17.798;2022-09-24T13:27:56;99799.47;;;19.16;57.17
44213;BME280;29882;46.356;17.798;2022-09-24T13:30:34;99793.53;;;19.26;57.14
44213;BME280;29882;46.356;17.798;2022-09-24T13:33:26;99791.03;;;19.24;57.18
44213;BME280;29882;46.356;17.798;2022-09-24T13:38:29;99780.28;;;19.23;57.83
44213;BME280;29882;46.356;17.798;2022-09-24T13:41:02;99780.63;;;19.83;56.30
44213;BME280;29882;46.356;17.798;2022-09-24T13:43:34;99784.28;;;20.32;55.03
44213;BME280;29882;46.356;17.798;2022-09-24T13:46:06;99782.47;;;20.74;54.00
44213;BME280;29882;46.356;17.798;2022-09-24T13:48:37;99778.56;;;20.82;54.19
44213;BME280;29882;46.356;17.798;2022-09-24T13:51:10;99767.28;;;21.32;52.42
44213;BME280;29882;46.356;17.798;2022-09-24T13:53:39;99771.00;;;21.49;51.99
44213;BME280;29882;46.356;17.798;2022-09-24T13:56:12;99757.97;;;21.56;51.58
44213;BME280;29882;46.356;17.798;2022-09-24T13:58:40;99760.91;;;21.19;52.51
44213;BME280;29882;46.356;17.798;2022-09-24T14:03:38;99755.00;;;20.92;53.62
44213;BME280;29882;46.356;17.798;2022-09-24T14:06:15;99761.59;;;20.61;54.72
44213;BME280;29882;46.356;17.798;2022-09-24T14:08:47;99762.97;;;20.34;54.67
44213;BME280;29882;46.356;17.798;2022-09-24T14:11:15;99752.63;;;20.36;55.83
44213;BME280;29882;46.356;17.798;2022-09-24T14:13:43;99763.31;;;20.07;56.20
44213;BME280;29882;46.356;17.798;2022-09-24T14:16:17;99753.03;;;19.84;57.34
44213;BME280;29882;46.356;17.798;2022-09-24T14:18:44;99752.31;;;19.96;56.52
44213;BME280;29882;46.356;17.798;2022-09-24T14:21:20;99752.50;;;19.94;56.44
44213;BME280;29882;46.356;17.798;2022-09-24T14:23:52;99756.72;;;19.97;56.95
44213;BME280;29882;46.356;17.798;2022-09-24T14:28:48;99755.03;;;19.52;56.74
44213;BME280;29882;46.356;17.798;2022-09-24T14:31:15;99756.94;;;19.52;57.23
44213;BME280;29882;46.356;17.798;2022-09-24T14:33:42;99759.78;;;19.39;57.58
44213;BME280;29882;46.356;17.798;2022-09-24T14:36:10;99748.63;;;19.40;58.35
44213;BME280;29882;46.356;17.798;2022-09-24T14:38:52;99751.03;;;19.30;58.24
44213;BME280;29882;46.356;17.798;2022-09-24T14:41:23;99744.78;;;19.23;57.28
44213;BME280;29882;46.356;17.798;2022-09-24T14:43:52;99744.16;;;19.21;57.91
44213;BME280;29882;46.356;17.798;2022-09-24T14:46:30;99752.63;;;19.13;57.54
44213;BME280;29882;46.356;17.798;2022-09-24T14:51:54;99746.19;;;19.07;58.31
44213;BME280;29882;46.356;17.798;2022-09-24T14:57:11;99746.63;;;19.04;58.01
44213;BME280;29882;46.356;17.798;2022-09-24T14:59:49;99734.44;;;19.07;58.84
44213;BME280;29882;46.356;17.798;2022-09-24T15:02:28;99744.56;;;18.99;58.81
44213;BME280;29882;46.356;17.798;2022-09-24T15:04:58;99743.13;;;18.97;57.79
44213;BME280;29882;46.356;17.798;2022-09-24T15:07:31;99735.81;;;18.91;58.44
44213;BME280;29882;46.356;17.798;2022-09-24T15:09:59;99731.69;;;18.82;58.20
44213;BME280;29882;46.356;17.798;2022-09-24T15:12:28;99724.53;;;18.81;58.43
44213;BME280;29882;46.356;17.798;2022-09-24T15:14:59;99729.41;;;18.79;58.35
44213;BME280;29882;46.356;17.798;2022-09-24T15:17:31;99726.44;;;18.80;58.43
44213;BME280;29882;46.356;17.798;2022-09-24T15:19:58;99725.75;;;18.85;58.70
44213;BME280;29882;46.356;17.798;2022-09-24T15:22:26;99724.66;;;18.92;58.32
44213;BME280;29882;46.356;17.798;2022-09-24T15:24:54;99728.28;;;18.86;58.70
44213;BME280;29882;46.356;17.798;2022-09-24T15:27:27;99723.94;;;18.79;58.85
44213;BME280;29882;46.356;17.798;2022-09-24T15:29:55;99729.22;;;18.74;59.51
44213;BME280;29882;46.356;17.798;2022-09-24T15:32:29;99724.63;;;18.67;60.15
44213;BME280;29882;46.356;17.798;2022-09-24T15:34:56;99728.59;;;18.71;60.55
44213;BME280;29882;46.356;17.798;2022-09-24T15:37:25;99722.34;;;18.58;61.41
44213;BME280;29882;46.356;17.798;2022-09-24T15:39:55;99720.88;;;18.62;60.71
44213;BME280;29882;46.356;17.798;2022-09-24T15:42:24;99716.06;;;18.57;60.63
44213;BME280;29882;46.356;17.798;2022-09-24T15:47:35;99728.50;;;18.47;62.00
44213;BME280;29882;46.356;17.798;2022-09-24T15:50:02;99722.00;;;18.48;62.38
44213;BME280;29882;46.356;17.798;2022-09-24T15:52:30;99718.25;;;18.42;63.49
44213;BME280;29882;46.356;17.798;2022-09-24T15:54:57;99724.16;;;18.32;64.11
44213;BME280;29882;46.356;17.798;2022-09-24T15:57:26;99724.16;;;18.32;65.08
44213;BME280;29882;46.356;17.798;2022-09-24T15:59:53;99720.47;;;18.20;65.69
44213;BME280;29882;46.356;17.798;2022-09-24T16:02:24;99723.22;;;18.13;66.99
44213;BME280;29882;46.356;17.798;2022-09-24T16:04:52;99723.91;;;17.96;67.98
44213;BME280;29882;46.356;17.798;2022-09-24T16:07:19;99717.69;;;17.89;68.65
44213;BME280;29882;46.356;17.798;2022-09-24T16:09:46;99719.97;;;17.85;69.97
44213;BME280;29882;46.356;17.798;2022-09-24T16:12:14;99725.66;;;17.83;70.49
44213;BME280;29882;46.356;17.798;2022-09-24T16:14:41;99733.44;;;17.73;72.95
44213;BME280;29882;46.356;17.798;2022-09-24T16:17:08;99725.47;;;17.58;73.76
44213;BME280;29882;46.356;17.798;2022-09-24T16:19:35;99727.38;;;17.58;73.84
44213;BME280;29882;46.356;17.798;2022-09-24T16:22:03;99722.97;;;17.57;73.56
44213;BME280;29882;46.356;17.798;2022-09-24T16:24:33;99725.47;;;17.58;72.71
44213;BME280;29882;46.356;17.798;2022-09-24T16:27:00;99723.81;;;17.51;73.05
44213;BME280;29882;46.356;17.798;2022-09-24T16:29:27;99725.06;;;17.55;73.05
44213;BME280;29882;46.356;17.798;2022-09-24T16:31:54;99720.47;;;17.49;74.20
44213;BME280;29882;46.356;17.798;2022-09-24T16:34:21;99725.28;;;17.47;73.41
44213;BME280;29882;46.356;17.798;2022-09-24T16:36:48;99727.19;;;17.46;72.81
44213;BME280;29882;46.356;17.798;2022-09-24T16:39:15;99729.06;;;17.46;73.69
44213;BME280;29882;46.356;17.798;2022-09-24T16:41:42;99725.28;;;17.47;73.65
44213;BME280;29882;46.356;17.798;2022-09-24T16:44:10;99724.25;;;17.41;73.97
44213;BME280;29882;46.356;17.798;2022-09-24T16:46:41;99722.13;;;17.43;74.28
44213;BME280;29882;46.356;17.798;2022-09-24T16:49:08;99722.56;;;17.40;74.48
44213;BME280;29882;46.356;17.798;2022-09-24T16:51:35;99715.66;;;17.38;74.02
44213;BME280;29882;46.356;17.798;2022-09-24T16:54:03;99707.06;;;17.34;75.66
44213;BME280;29882;46.356;17.798;2022-09-24T16:56:33;99714.66;;;17.25;75.86
44213;BME280;29882;46.356;17.798;2022-09-24T16:59:00;99715.66;;;17.24;75.77
44213;BME280;29882;46.356;17.798;2022-09-24T17:01:27;99713.59;;;17.20;76.18
44213;BME280;29882;46.356;17.798;2022-09-24T17:03:55;99726.78;;;17.23;76.73
44213;BME280;29882;46.356;17.798;2022-09-24T17:06:23;99722.38;;;17.22;76.79
44213;BME280;29882;46.356;17.798;2022-09-24T17:08:51;99724.69;;;17.18;80.06
44213;BME280;29882;46.356;17.798;2022-09-24T17:11:36;99727.81;;;17.15;78.91
44213;BME280;29882;46.356;17.798;2022-09-24T17:14:06;99721.75;;;17.13;79.70
44213;BME280;29882;46.356;17.798;2022-09-24T17:16:33;99719.69;;;17.09;80.63
44213;BME280;29882;46.356;17.798;2022-09-24T17:19:00;99724.50;;;17.13;81.84
44213;BME280;29882;46.356;17.798;2022-09-24T17:21:27;99727.03;;;17.08;83.29
44213;BME280;29882;46.356;17.798;2022-09-24T17:23:54;99731.19;;;17.04;85.05
44213;BME280;29882;46.356;17.798;2022-09-24T17:26:21;99732.00;;;16.98;84.95
44213;BME280;29882;46.356;17.798;2022-09-24T17:28:50;99726.78;;;16.96;85.08
44213;BME280;29882;46.356;17.798;2022-09-24T17:31:17;99729.50;;;16.96;85.30
44213;BME280;29882;46.356;17.798;2022-09-24T17:33:47;99729.72;;;16.95;86.99
44213;BME280;29882;46.356;17.798;2022-09-24T17:36:21;99734.13;;;16.96;88.46
44213;BME280;29882;46.356;17.798;2022-09-24T17:38:49;99732.88;;;16.92;89.71
44213;BME280;29882;46.356;17.798;2022-09-24T17:41:16;99730.97;;;16.92;90.50
44213;BME280;29882;46.356;17.798;2022-09-24T17:43:43;99728.47;;;16.84;92.94
44213;BME280;29882;46.356;17.798;2022-09-24T17:46:14;99727.63;;;16.84;94.43
44213;BME280;29882;46.356;17.798;2022-09-24T17:48:43;99727.59;;;16.70;98.37
44213;BME280;29882;46.356;17.798;2022-09-24T17:51:14;99730.09;;;16.65;99.94
44213;BME280;29882;46.356;17.798;2022-09-24T17:53:41;99730.47;;;16.62;100.00
44213;BME280;29882;46.356;17.798;2022-09-24T17:56:12;99731.13;;;16.58;100.00
44213;BME280;29882;46.356;17.798;2022-09-24T17:58:40;99733.19;;;16.49;100.00
44213;BME280;29882;46.356;17.798;2022-09-24T18:01:08;99736.53;;;16.44;100.00
44213;BME280;29882;46.356;17.798;2022-09-24T18:03:36;99728.56;;;16.43;100.00
44213;BME280;29882;46.356;17.798;2022-09-24T18:06:04;99734.22;;;16.41;100.00
44213;BME280;29882;46.356;17.798;2022-09-24T18:08:35;99725.22;;;16.41;100.00
44213;BME280;29882;46.356;17.798;2022-09-24T18:11:04;99732.13;;;16.37;100.00
44213;BME280;29882;46.356;17.798;2022-09-24T18:13:31;99728.75;;;16.35;100.00
44213;BME280;29882;46.356;17.798;2022-09-24T18:16:03;99726.69;;;16.37;100.00
44213;BME280;29882;46.356;17.798;2022-09-24T18:18:30;99736.06;;;16.34;100.00
44213;BME280;29882;46.356;17.798;2022-09-24T18:20:58;99735.22;;;16.34;100.00
44213;BME280;29882;46.356;17.798;2022-09-24T18:23:25;99734.59;;;16.32;100.00
44213;BME280;29882;46.356;17.798;2022-09-24T18:25:53;99735.66;;;16.31;100.00
44213;BME280;29882;46.356;17.798;2022-09-24T18:28:20;99740.66;;;16.27;100.00
44213;BME280;29882;46.356;17.798;2022-09-24T18:30:47;99743.16;;;16.22;100.00
44213;BME280;29882;46.356;17.798;2022-09-24T18:33:14;99739.19;;;16.18;100.00
44213;BME280;29882;46.356;17.798;2022-09-24T18:35:41;99742.28;;;16.15;100.00
44213;BME280;29882;46.356;17.798;2022-09-24T18:38:09;99744.59;;;16.11;100.00
44213;BME280;29882;46.356;17.798;2022-09-24T18:40:36;99742.25;;;16.08;100.00
44213;BME280;29882;46.356;17.798;2022-09-24T18:43:03;99735.56;;;16.04;100.00
44213;BME280;29882;46.356;17.798;2022-09-24T18:45:30;99740.75;;;15.99;100.00
44213;BME280;29882;46.356;17.798;2022-09-24T18:47:59;99738.22;;;15.98;100.00
44213;BME280;29882;46.356;17.798;2022-09-24T18:50:26;99738.03;;;15.99;100.00
44213;BME280;29882;46.356;17.798;2022-09-24T18:52:53;99735.50;;;15.98;100.00
44213;BME280;29882;46.356;17.798;2022-09-24T18:55:20;99738.03;;;15.93;100.00
44213;BME280;29882;46.356;17.798;2022-09-24T18:57:47;99750.09;;;15.90;100.00
44213;BME280;29882;46.356;17.798;2022-09-24T19:00:14;99751.97;;;15.83;100.00
44213;BME280;29882;46.356;17.798;2022-09-24T19:03:01;99741.94;;;15.83;100.00
44213;BME280;29882;46.356;17.798;2022-09-24T19:05:28;99745.50;;;15.84;100.00
44213;BME280;29882;46.356;17.798;2022-09-24T19:07:58;99750.69;;;15.79;100.00
44213;BME280;29882;46.356;17.798;2022-09-24T19:10:25;99745.88;;;15.74;100.00
44213;BME280;29882;46.356;17.798;2022-09-24T19:12:52;99744.78;;;15.69;100.00
44213;BME280;29882;46.356;17.798;2022-09-24T19:15:20;99738.50;;;15.68;100.00
44213;BME280;29882;46.356;17.798;2022-09-24T19:17:47;99740.81;;;15.65;100.00
44213;BME280;29882;46.356;17.798;2022-09-24T19:20:15;99736.78;;;15.60;100.00
44213;BME280;29882;46.356;17.798;2022-09-24T19:22:42;99738.00;;;15.58;100.00
44213;BME280;29882;46.356;17.798;2022-09-24T19:25:15;99744.28;;;15.58;100.00
44213;BME280;29882;46.356;17.798;2022-09-24T19:27:42;99744.28;;;15.58;100.00
44213;BME280;29882;46.356;17.798;2022-09-24T19:30:09;99744.69;;;15.55;100.00
44213;BME280;29882;46.356;17.798;2022-09-24T19:32:38;99734.59;;;15.49;100.00
44213;BME280;29882;46.356;17.798;2022-09-24T19:35:05;99748.75;;;15.45;100.00
44213;BME280;29882;46.356;17.798;2022-09-24T19:37:32;99735.81;;;15.40;100.00
44213;BME280;29882;46.356;17.798;2022-09-24T19:39:59;99740.41;;;15.40;100.00
44213;BME280;29882;46.356;17.798;2022-09-24T19:42:26;99748.47;;;15.33;100.00
44213;BME280;29882;46.356;17.798;2022-09-24T19:44:53;99744.09;;;15.32;100.00
44213;BME280;29882;46.356;17.798;2022-09-24T19:47:20;99746.38;;;15.28;100.00
44213;BME280;29882;46.356;17.798;2022-09-24T19:49:47;99738.41;;;15.27;100.00
44213;BME280;29882;46.356;17.798;2022-09-24T19:52:14;99741.31;;;15.25;100.00
44213;BME280;29882;46.356;17.798;2022-09-24T19:54:41;99743.00;;;15.26;100.00
44213;BME280;29882;46.356;17.798;2022-09-24T19:57:10;99740.00;;;15.15;100.00
44213;BME280;29882;46.356;17.798;2022-09-24T19:59:37;99751.06;;;15.13;100.00
44213;BME280;29882;46.356;17.798;2022-09-24T20:02:04;99749.13;;;15.07;100.00
44213;BME280;29882;46.356;17.798;2022-09-24T20:04:31;99746.59;;;15.05;100.00
44213;BME280;29882;46.356;17.798;2022-09-24T20:07:01;99749.50;;;15.04;100.00
44213;BME280;29882;46.356;17.798;2022-09-24T20:09:31;99750.22;;;14.91;100.00
44213;BME280;29882;46.356;17.798;2022-09-24T20:11:58;99750.81;;;14.87;100.00
44213;BME280;29882;46.356;17.798;2022-09-24T20:14:25;99752.50;;;14.88;100.00
44213;BME280;29882;46.356;17.798;2022-09-24T20:16:58;99738.94;;;14.88;100.00
44213;BME280;29882;46.356;17.798;2022-09-24T20:19:25;99745.84;;;14.90;100.00
44213;BME280;29882;46.356;17.798;2022-09-24T20:21:52;99748.75;;;14.89;100.00
44213;BME280;29882;46.356;17.798;2022-09-24T20:24:23;99748.25;;;14.79;100.00
44213;BME280;29882;46.356;17.798;2022-09-24T20:26:50;99752.19;;;14.76;100.00
44213;BME280;29882;46.356;17.798;2022-09-24T20:29:35;99741.53;;;14.74;100.00
44213;BME280;29882;46.356;17.798;2022-09-24T20:32:02;99742.16;;;14.76;100.00
44213;BME280;29882;46.356;17.798;2022-09-24T20:34:30;99751.16;;;14.77;100.00
44213;BME280;29882;46.356;17.798;2022-09-24T20:37:00;99758.25;;;14.78;100.00
44213;BME280;29882;46.356;17.798;2022-09-24T20:39:27;99758.66;;;14.75;100.00
44213;BME280;29882;46.356;17.798;2022-09-24T20:41:55;99756.78;;;14.75;100.00
44213;BME280;29882;46.356;17.798;2022-09-24T20:44:22;99764.72;;;14.77;100.00
44213;BME280;29882;46.356;17.798;2022-09-24T20:46:50;99762.19;;;14.75;100.00
44213;BME280;29882;46.356;17.798;2022-09-24T20:49:20;99761.59;;;14.80;100.00
44213;BME280;29882;46.356;17.798;2022-09-24T20:51:49;99764.13;;;14.82;100.00
44213;BME280;29882;46.356;17.798;2022-09-24T20:54:22;99758.88;;;14.80;100.00
44213;BME280;29882;46.356;17.798;2022-09-24T20:56:49;99770.84;;;14.86;100.00
44213;BME280;29882;46.356;17.798;2022-09-24T20:59:16;99764.81;;;14.90;100.00
44213;BME280;29882;46.356;17.798;2022-09-24T21:01:43;99757.94;;;14.88;100.00
44213;BME280;29882;46.356;17.798;2022-09-24T21:04:11;99763.34;;;14.88;100.00
44213;BME280;29882;46.356;17.798;2022-09-24T21:06:38;99760.63;;;14.88;100.00
44213;BME280;29882;46.356;17.798;2022-09-24T21:09:05;99751.94;;;14.92;100.00
44213;BME280;29882;46.356;17.798;2022-09-24T21:11:32;99751.25;;;14.90;100.00
44213;BME280;29882;46.356;17.798;2022-09-24T21:13:59;99749.00;;;14.94;100.00
44213;BME280;29882;46.356;17.798;2022-09-24T21:16:28;99749.66;;;14.96;100.00
44213;BME280;29882;46.356;17.798;2022-09-24T21:18:55;99745.66;;;14.92;100.00
44213;BME280;29882;46.356;17.798;2022-09-24T21:21:27;99744.44;;;14.94;100.00
44213;BME280;29882;46.356;17.798;2022-09-24T21:23:55;99752.56;;;14.94;100.00
44213;BME280;29882;46.356;17.798;2022-09-24T21:26:23;99755.91;;;14.96;100.00
44213;BME280;29882;46.356;17.798;2022-09-24T21:28:52;99751.19;;;15.05;100.00
44213;BME280;29882;46.356;17.798;2022-09-24T21:31:20;99751.75;;;15.00;100.00
44213;BME280;29882;46.356;17.798;2022-09-24T21:33:48;99748.69;;;15.03;100.00
44213;BME280;29882;46.356;17.798;2022-09-24T21:36:15;99750.56;;;15.03;100.00
44213;BME280;29882;46.356;17.798;2022-09-24T21:41:21;99751.97;;;14.99;100.00
44213;BME280;29882;46.356;17.798;2022-09-24T21:43:49;99754.47;;;15.00;100.00
44213;BME280;29882;46.356;17.798;2022-09-24T21:46:16;99749.56;;;15.11;100.00
44213;BME280;29882;46.356;17.798;2022-09-24T21:48:43;99747.56;;;15.19;100.00
44213;BME280;29882;46.356;17.798;2022-09-24T21:51:13;99744.84;;;15.19;100.00
44213;BME280;29882;46.356;17.798;2022-09-24T21:53:50;99745.28;;;15.23;100.00
44213;BME280;29882;46.356;17.798;2022-09-24T21:56:18;99746.75;;;15.25;100.00
44213;BME280;29882;46.356;17.798;2022-09-24T21:58:45;99745.78;;;15.33;100.00
44213;BME280;29882;46.356;17.798;2022-09-24T22:01:22;99743.31;;;15.38;100.00
44213;BME280;29882;46.356;17.798;2022-09-24T22:03:52;99737.03;;;15.38;100.00
44213;BME280;29882;46.356;17.798;2022-09-24T22:06:20;99731.22;;;15.41;100.00
44213;BME280;29882;46.356;17.798;2022-09-24T22:08:47;99735.03;;;15.53;100.00
44213;BME280;29882;46.356;17.798;2022-09-24T22:11:14;99730.84;;;15.50;100.00
44213;BME280;29882;46.356;17.798;2022-09-24T22:13:41;99733.81;;;15.55;100.00
44213;BME280;29882;46.356;17.798;2022-09-24T22:16:09;99732.66;;;15.65;100.00
44213;BME280;29882;46.356;17.798;2022-09-24T22:18:36;99728.91;;;15.66;100.00
44213;BME280;29882;46.356;17.798;2022-09-24T22:21:07;99733.72;;;15.70;100.00
44213;BME280;29882;46.356;17.798;2022-09-24T22:23:34;99733.31;;;15.73;100.00
44213;BME280;29882;46.356;17.798;2022-09-24T22:26:02;99733.97;;;15.75;100.00
44213;BME280;29882;46.356;17.798;2022-09-24T22:28:29;99729.78;;;15.73;100.00
44213;BME280;29882;46.356;17.798;2022-09-24T22:30:56;99728.28;;;15.70;100.00
44213;BME280;29882;46.356;17.798;2022-09-24T22:33:25;99728.72;;;15.74;100.00
44213;BME280;29882;46.356;17.798;2022-09-24T22:36:12;99729.09;;;15.71;100.00
44213;BME280;29882;46.356;17.798;2022-09-24T22:38:39;99732.25;;;15.68;100.00
44213;BME280;29882;46.356;17.798;2022-09-24T22:41:07;99733.31;;;15.73;100.00
44213;BME280;29882;46.356;17.798;2022-09-24T22:43:34;99725.19;;;15.73;100.00
44213;BME280;29882;46.356;17.798;2022-09-24T22:46:02;99728.91;;;15.72;100.00
44213;BME280;29882;46.356;17.798;2022-09-24T22:48:29;99736.44;;;15.70;100.00
44213;BME280;29882;46.356;17.798;2022-09-24T22:50:56;99734.34;;;15.72;100.00
44213;BME280;29882;46.356;17.798;2022-09-24T22:53:23;99739.78;;;15.72;100.00
44213;BME280;29882;46.356;17.798;2022-09-24T22:55:49;99735.59;;;15.70;100.00
44213;BME280;29882;46.356;17.798;2022-09-24T22:58:18;99747.28;;;15.70;100.00
44213;BME280;29882;46.356;17.798;2022-09-24T23:00:45;99737.41;;;15.63;100.00
44213;BME280;29882;46.356;17.798;2022-09-24T23:03:12;99735.88;;;15.53;100.00
44213;BME280;29882;46.356;17.798;2022-09-24T23:05:38;99739.59;;;15.46;100.00
44213;BME280;29882;46.356;17.798;2022-09-24T23:08:05;99741.22;;;15.40;100.00
44213;BME280;29882;46.356;17.798;2022-09-24T23:10:32;99735.16;;;15.38;100.00
44213;BME280;29882;46.356;17.798;2022-09-24T23:12:59;99737.69;;;15.40;100.00
44213;BME280;29882;46.356;17.798;2022-09-24T23:15:26;99743.25;;;15.31;100.00
44213;BME280;29882;46.356;17.798;2022-09-24T23:17:53;99741.19;;;15.33;100.00
44213;BME280;29882;46.356;17.798;2022-09-24T23:20:20;99749.25;;;15.27;100.00
44213;BME280;29882;46.356;17.798;2022-09-24T23:22:49;99743.41;;;15.23;100.00
44213;BME280;29882;46.356;17.798;2022-09-24T23:25:16;99740.69;;;15.23;100.00
44213;BME280;29882;46.356;17.798;2022-09-24T23:27:43;99740.06;;;15.21;100.00
44213;BME280;29882;46.356;17.798;2022-09-24T23:30:10;99740.63;;;15.17;100.00
44213;BME280;29882;46.356;17.798;2022-09-24T23:32:37;99748.19;;;15.21;100.00